This is the latest recevied weather packets stored in our database for station/object K7YVO. If no packets are shown the sender has not sent any weather packets the latest 10 day(s).
| Time | Temp. | Humidity | Pressure | Rain* | Wind** | Luminosity | Snow |
|---|---|---|---|---|---|---|---|
| 1777754633 | 16.11° C | 72% | 1016.4 hPa | 0 mm | - | 729 W/m² | - |
| 1777754331 | 16.11° C | 73% | 1016.3 hPa | 0 mm | - | 750 W/m² | - |
| 1777754028 | 17.22° C | 70% | 1016.4 hPa | 0 mm | - | 653 W/m² | - |
| 1777753724 | 16.67° C | 72% | 1016.6 hPa | 0 mm | - | 725 W/m² | - |
| 1777753421 | 15.56° C | 75% | 1016.6 hPa | 0 mm | - | 777 W/m² | - |
| 1777753119 | 15.56° C | 74% | 1016.6 hPa | 0 mm | - | 721 W/m² | - |
| 1777752815 | 15° C | 76% | 1016.6 hPa | 0 mm | - | 747 W/m² | - |
| 1777752511 | 15° C | 75% | 1016.9 hPa | 0 mm | - | 225 W/m² | - |
| 1777752207 | 15.56° C | 75% | 1016.7 hPa | 0 mm | - | 261 W/m² | - |
| 1777751905 | 15° C | 76% | 1016.8 hPa | 0 mm | - | 545 W/m² | - |
| 1777751602 | 13.89° C | 79% | 1016.9 hPa | 0 mm | - | 499 W/m² | - |
| 1777751298 | 13.89° C | 79% | 1016.7 hPa | 0 mm | - | 342 W/m² | - |
| 1777750995 | 13.89° C | 80% | 1017.2 hPa | 0 mm | - | 279 W/m² | - |
| 1777750691 | 13.89° C | 79% | 1017.1 hPa | 0 mm | - | 458 W/m² | - |
| 1777750389 | 13.89° C | 80% | 1016.9 hPa | 0 mm | - | 457 W/m² | - |
| 1777750084 | 13.89° C | 80% | 1017 hPa | 0 mm | - | 365 W/m² | - |
| 1777749781 | 13.89° C | 80% | 1017.1 hPa | 0 mm | - | 365 W/m² | - |
| 1777749478 | 13.33° C | 81% | 1017.1 hPa | 0 mm | - | 313 W/m² | - |
| 1777749176 | 13.33° C | 81% | 1017.3 hPa | 0 mm | - | 281 W/m² | - |
| 1777748873 | 13.33° C | 82% | 1017.2 hPa | 0 mm | - | 362 W/m² | - |
| 1777748570 | 13.33° C | 81% | 1017.2 hPa | 0 mm | - | 351 W/m² | - |
| 1777748265 | 13.33° C | 82% | 1017 hPa | 0 mm | - | 328 W/m² | - |
| 1777747961 | 13.33° C | 81% | 1017.3 hPa | 0 mm | - | 302 W/m² | - |
| 1777747657 | 12.78° C | 83% | 1017.1 hPa | 0 mm | - | 543 W/m² | - |
| 1777747348 | 13.33° C | 83% | 1017.4 hPa | 0 mm | - | 217 W/m² | - |
* Rain latest hour (hover to see other rain measurements)
** Current wind speed in m/s (hover to see current wind gust speed)